createdAt,value
2017-04-10T00:00:32.287Z,0
2017-04-10T00:01:12.706Z,0
2017-04-10T00:01:53.095Z,0
2017-04-10T00:02:33.495Z,0
2017-04-10T00:03:14.527Z,0
2017-04-10T00:03:54.980Z,0
2017-04-10T00:04:35.387Z,0
2017-04-10T00:05:15.816Z,0
2017-04-10T00:05:56.729Z,0
2017-04-10T00:06:37.153Z,0
2017-04-10T00:07:17.557Z,0
2017-04-10T00:07:57.992Z,0
2017-04-10T00:08:38.351Z,0
2017-04-10T00:09:19.615Z,0
2017-04-10T00:10:00.021Z,0
2017-04-10T00:10:40.451Z,0
2017-04-10T00:11:20.841Z,0
2017-04-10T00:12:01.229Z,0
2017-04-10T00:12:42.448Z,0
2017-04-10T00:13:22.880Z,0
2017-04-10T00:14:03.313Z,0
2017-04-10T00:14:43.714Z,0
2017-04-10T00:15:24.146Z,0
2017-04-10T04:14:55.284Z,4
2017-04-10T04:15:35.705Z,4
2017-04-10T04:16:16.161Z,8
2017-04-10T04:16:56.561Z,4
2017-04-10T04:17:39.638Z,8
2017-04-10T04:18:19.997Z,8
2017-04-10T04:19:01.269Z,8
2017-04-10T04:19:41.726Z,8
2017-04-10T04:20:22.892Z,8
2017-04-10T04:21:03.306Z,12
2017-04-10T04:21:43.759Z,12
2017-04-10T04:22:25.855Z,12
2017-04-10T04:23:07.125Z,16
2017-04-10T04:23:47.536Z,20
2017-04-10T04:24:28.527Z,20
2017-04-10T04:25:09.533Z,24
2017-04-10T04:25:49.993Z,24
2017-04-10T04:26:31.034Z,32
2017-04-10T04:27:11.447Z,36
2017-04-10T04:27:54.035Z,40
2017-04-10T04:28:38.294Z,40
2017-04-10T04:29:18.691Z,48
2017-04-10T04:29:59.119Z,48
2017-04-10T04:30:41.222Z,56
2017-04-10T04:31:22.418Z,64
2017-04-10T04:32:05.533Z,68
2017-04-10T04:32:45.958Z,76
2017-04-10T04:33:26.393Z,84
2017-04-10T04:34:06.818Z,88
2017-04-10T04:34:47.749Z,100
2017-04-10T04:35:28.498Z,108
2017-04-10T10:47:31.573Z,67712
2017-04-10T10:48:11.996Z,67296
2017-04-10T10:48:52.450Z,73312
2017-04-10T10:49:32.891Z,78016
2017-04-10T10:50:13.359Z,86912
2017-04-10T10:50:53.782Z,89184
2017-04-10T10:51:37.677Z,94656
2017-04-10T10:52:20.240Z,99904
2017-04-10T10:53:03.106Z,98336
2017-04-10T10:53:43.688Z,93984
2017-04-10T10:54:24.183Z,86176
2017-04-10T10:55:05.640Z,75904
2017-04-10T10:55:46.314Z,71808
2017-04-10T10:56:26.741Z,74368
2017-04-10T10:57:09.041Z,78176
2017-04-10T10:57:55.506Z,77216
2017-04-10T10:58:51.796Z,88672
2017-04-10T10:59:33.663Z,85216
2017-04-10T11:00:18.667Z,85056
2017-04-10T11:01:00.053Z,100800
2017-04-10T11:03:29.515Z,96928
2017-04-10T11:04:10.768Z,85440
2017-04-10T11:04:51.215Z,87104
2017-04-10T11:05:37.107Z,82560
2017-04-10T11:06:24.529Z,86112
2017-04-10T11:08:52.774Z,90112
2017-04-10T11:09:38.385Z,89216
2017-04-10T14:16:14.679Z,13756
2017-04-10T14:36:45.922Z,8600
2017-04-10T14:37:26.394Z,8940
2017-04-10T14:38:06.814Z,9644
2017-04-10T14:38:47.240Z,10068
2017-04-10T14:39:28.547Z,10376
2017-04-10T14:40:08.974Z,10644
2017-04-10T16:17:46.156Z,5104
2017-04-10T16:18:26.607Z,4748
2017-04-10T16:19:07.098Z,4424
2017-04-10T16:19:47.543Z,4248
2017-04-10T16:20:27.859Z,4236
2017-04-10T16:21:08.339Z,4264
2017-04-10T16:21:48.838Z,4232
2017-04-10T16:22:29.267Z,3996
2017-04-10T16:23:09.787Z,3732
2017-04-10T16:23:50.275Z,3532
2017-04-10T16:24:30.816Z,3404
2017-04-10T16:25:11.342Z,3236
2017-04-10T16:25:51.896Z,3160
2017-04-10T16:26:32.367Z,3108
2017-04-10T16:27:13.051Z,2960
2017-04-10T16:27:53.437Z,2844
2017-04-10T16:28:33.970Z,2772
2017-04-10T16:29:14.472Z,2752
2017-04-10T16:29:54.856Z,2756
2017-04-10T16:30:35.367Z,2760
2017-04-10T16:31:15.814Z,2784
2017-04-10T16:31:56.747Z,2840
2017-04-10T16:32:37.362Z,2988
2017-04-10T16:33:17.959Z,3168
2017-04-10T16:33:58.410Z,3292
2017-04-10T16:34:39.111Z,3264
2017-04-10T16:35:19.629Z,3188
2017-04-10T16:36:00.246Z,2952
2017-04-10T16:36:40.737Z,2808
2017-04-10T16:37:21.167Z,2736
2017-04-10T16:38:01.622Z,2696
2017-04-10T16:38:42.134Z,2656
2017-04-10T16:39:22.502Z,2580
2017-04-10T16:40:02.901Z,2452
2017-04-10T16:40:43.339Z,2300
2017-04-10T16:41:23.804Z,2168
2017-04-10T16:42:04.965Z,2084
2017-04-10T16:42:45.396Z,2096
2017-04-10T16:43:25.833Z,2228
2017-04-10T16:44:07.168Z,2452
2017-04-10T16:44:49.238Z,2684
2017-04-10T16:45:29.703Z,2788
2017-04-10T16:46:10.099Z,2748
2017-04-10T16:46:50.512Z,2660
2017-04-10T16:47:30.935Z,2560
2017-04-10T16:48:11.351Z,2480
2017-04-10T16:48:52.341Z,2404
2017-04-10T16:49:34.483Z,2272
2017-04-10T16:50:14.920Z,2080
2017-04-10T16:50:55.403Z,1936
2017-04-10T16:51:36.507Z,1896
2017-04-10T16:52:19.577Z,1856
2017-04-10T16:53:00.033Z,1780
2017-04-10T16:55:14.196Z,1388
2017-04-10T16:55:54.661Z,1344
2017-04-10T16:56:35.046Z,1304
2017-04-10T16:58:50.823Z,1280
2017-04-10T16:59:32.917Z,1284
2017-04-10T17:00:13.467Z,1300
2017-04-10T17:00:54.824Z,1364
2017-04-10T17:01:35.265Z,1476
2017-04-10T17:02:15.797Z,1564
2017-04-10T17:02:56.214Z,1632
2017-04-10T17:03:36.661Z,1620
2017-04-10T17:04:17.136Z,1556
2017-04-10T17:06:36.332Z,1732
2017-04-10T17:08:49.210Z,2140
2017-04-10T17:09:29.724Z,2016
2017-04-10T17:10:11.054Z,1872
2017-04-10T17:12:29.847Z,1520
2017-04-10T17:13:10.294Z,1356
2017-04-10T17:13:51.349Z,1192
2017-04-10T17:14:31.898Z,1104
2017-04-10T17:15:12.332Z,1124
2017-04-10T17:15:52.834Z,1264
2017-04-10T17:16:33.250Z,1420
2017-04-10T17:17:13.627Z,1516
2017-04-10T17:17:55.511Z,1572
2017-04-10T17:18:36.895Z,1652
2017-04-10T17:19:18.133Z,1696
2017-04-10T17:20:00.000Z,1660
2017-04-10T17:20:40.426Z,1600
2017-04-10T17:21:20.902Z,1536
2017-04-10T17:22:02.199Z,1472
2017-04-10T17:22:42.583Z,1444
2017-04-10T17:23:22.998Z,1448
2017-04-10T17:24:03.455Z,1552
2017-04-10T17:24:44.516Z,1636
2017-04-10T17:25:24.961Z,1676
2017-04-10T17:26:06.223Z,1612
2017-04-10T17:26:49.532Z,1516
2017-04-10T17:27:29.887Z,1472
2017-04-10T17:28:11.932Z,1424
2017-04-10T17:28:52.355Z,1420
2017-04-10T17:29:33.596Z,1420
2017-04-10T17:30:14.003Z,1440
2017-04-10T17:30:54.430Z,1448
2017-04-10T17:31:34.859Z,1444
2017-04-10T17:32:16.094Z,1448
2017-04-10T17:34:48.726Z,1384
2017-04-10T17:35:29.113Z,1356
2017-04-10T17:36:09.534Z,1340
2017-04-10T17:36:49.971Z,1312
2017-04-10T17:37:30.984Z,1260
2017-04-10T17:38:11.579Z,1252
2017-04-10T17:38:52.008Z,1252
2017-04-10T17:39:33.242Z,1240
2017-04-10T17:41:46.737Z,1100
2017-04-10T17:42:27.223Z,1076
2017-04-10T17:43:07.598Z,1076
2017-04-10T17:43:50.888Z,1052
2017-04-10T17:44:31.332Z,1012
2017-04-10T17:45:11.752Z,976
2017-04-10T17:45:52.240Z,964
2017-04-10T17:46:32.666Z,972
2017-04-10T17:47:13.736Z,980
2017-04-10T17:47:54.274Z,964
2017-04-10T17:48:35.966Z,912
2017-04-10T17:49:16.244Z,856
2017-04-10T17:49:58.603Z,780
2017-04-10T17:50:38.965Z,692
2017-04-10T17:51:19.327Z,636
2017-04-10T17:51:59.744Z,596
2017-04-10T17:52:40.195Z,564
2017-04-10T17:53:25.063Z,528
2017-04-10T17:54:06.165Z,504
2017-04-10T17:54:46.623Z,492
2017-04-10T17:55:27.012Z,476
2017-04-10T17:56:07.513Z,448
2017-04-10T17:56:47.904Z,412
2017-04-10T17:57:29.431Z,380
2017-04-10T17:58:09.929Z,352
2017-04-10T17:58:50.387Z,328
2017-04-10T17:59:31.805Z,304
2017-04-10T18:00:12.340Z,288
2017-04-10T18:00:53.521Z,268
2017-04-10T18:01:34.702Z,260
2017-04-10T18:02:15.213Z,248
2017-04-10T18:02:56.024Z,236
2017-04-10T18:03:40.832Z,232
2017-04-10T18:04:22.197Z,228
2017-04-10T18:05:03.408Z,224
2017-04-10T18:05:43.972Z,216
2017-04-10T18:06:24.467Z,212
2017-04-10T18:07:04.809Z,208
2017-04-10T18:07:46.056Z,196
2017-04-10T18:08:26.434Z,188
2017-04-10T18:10:44.550Z,156
2017-04-10T18:11:25.006Z,148
2017-04-10T18:12:05.383Z,140
2017-04-10T18:12:46.596Z,124
2017-04-10T18:13:26.970Z,116
2017-04-10T18:14:09.000Z,104
2017-04-10T18:14:49.395Z,96
2017-04-10T18:15:30.716Z,88
2017-04-10T18:16:11.830Z,80
2017-04-10T18:16:52.351Z,76
2017-04-10T18:17:32.659Z,72
2017-04-10T18:18:13.662Z,68
2017-04-10T18:18:55.393Z,60
2017-04-10T18:19:35.815Z,56
2017-04-10T18:21:52.017Z,40
2017-04-10T18:22:35.004Z,36
2017-04-10T18:23:16.312Z,36
2017-04-10T18:23:56.663Z,28
2017-04-10T18:26:12.546Z,20
2017-04-10T18:26:53.271Z,16
2017-04-10T18:27:34.205Z,16
2017-04-10T18:28:15.703Z,12
2017-04-10T18:28:56.156Z,12
2017-04-10T18:29:36.537Z,12
2017-04-10T18:30:16.974Z,12
2017-04-10T18:30:57.522Z,8
2017-04-10T18:31:37.875Z,8
2017-04-10T18:32:18.361Z,8
2017-04-10T18:32:58.803Z,4
2017-04-10T18:33:39.326Z,8
2017-04-10T18:35:54.050Z,0
2017-04-10T18:36:38.201Z,4
2017-04-10T18:37:18.640Z,4
2017-04-10T18:37:59.318Z,4
2017-04-10T18:38:39.832Z,4
2017-04-10T18:40:52.371Z,0
2017-04-10T18:41:37.419Z,0
2017-04-10T18:43:52.392Z,0
2017-04-10T18:44:33.065Z,0
2017-04-10T18:45:13.571Z,0
2017-04-10T18:45:56.929Z,0
2017-04-10T18:46:38.221Z,0
2017-04-10T18:47:18.644Z,0
2017-04-10T18:47:59.167Z,0
2017-04-10T18:48:39.588Z,0
2017-04-10T18:49:20.966Z,0
2017-04-10T18:50:01.389Z,0
2017-04-10T18:50:42.751Z,0
2017-04-10T18:51:26.191Z,0
2017-04-10T18:52:06.739Z,0
2017-04-10T18:52:47.443Z,0
2017-04-10T18:53:28.303Z,0
2017-04-10T18:54:09.751Z,0
2017-04-10T18:54:50.164Z,0
2017-04-10T18:55:30.590Z,0
2017-04-10T18:56:13.622Z,0
2017-04-10T18:56:54.191Z,0
2017-04-10T18:57:34.673Z,0
2017-04-10T18:58:15.249Z,0
2017-04-10T18:58:55.655Z,0
2017-04-10T18:59:36.065Z,0
2017-04-10T19:00:16.446Z,0
2017-04-10T19:00:57.048Z,0
2017-04-10T19:01:37.560Z,0
2017-04-10T19:02:17.941Z,0
2017-04-10T19:02:59.209Z,0
2017-04-10T19:03:39.664Z,0
2017-04-10T19:04:20.890Z,0
2017-04-10T19:05:01.472Z,0
2017-04-10T19:05:41.890Z,0
2017-04-10T19:06:22.417Z,0
2017-04-10T19:07:02.881Z,0
2017-04-10T19:07:43.989Z,0
2017-04-10T19:08:26.046Z,0
2017-04-10T19:09:06.554Z,0
2017-04-10T19:09:47.556Z,0
2017-04-10T19:10:29.707Z,0
2017-04-10T19:11:10.194Z,0
2017-04-10T19:11:51.571Z,0
2017-04-10T19:12:31.993Z,0
2017-04-10T19:13:12.413Z,0
2017-04-10T19:13:52.849Z,0
2017-04-10T19:14:33.257Z,0
2017-04-10T19:15:14.870Z,0
2017-04-10T19:15:55.300Z,0
2017-04-10T19:16:35.711Z,0
2017-04-10T19:17:16.171Z,0
2017-04-10T19:19:52.604Z,0
2017-04-10T19:20:34.034Z,0
2017-04-10T19:21:14.549Z,0
2017-04-10T19:21:55.011Z,0
2017-04-10T19:24:30.572Z,0
2017-04-10T19:25:11.116Z,0
2017-04-10T19:25:53.632Z,0
2017-04-10T19:26:34.001Z,0
2017-04-10T19:27:14.399Z,0
2017-04-10T19:27:55.063Z,0
2017-04-10T19:28:35.521Z,0
2017-04-10T19:29:16.063Z,0
2017-04-10T19:29:56.834Z,0
2017-04-10T19:30:39.592Z,0
2017-04-10T19:31:21.153Z,0
2017-04-10T19:33:21.045Z,0
2017-04-10T19:34:01.457Z,0
2017-04-10T19:34:41.947Z,0
2017-04-10T19:35:22.422Z,0
2017-04-10T19:36:03.888Z,0
2017-04-10T19:36:44.930Z,0
2017-04-10T19:37:25.914Z,0
2017-04-10T19:38:06.606Z,0
2017-04-10T19:38:48.117Z,0
2017-04-10T19:39:28.609Z,0
2017-04-10T19:41:42.087Z,0
2017-04-10T19:42:22.571Z,0
2017-04-10T19:43:03.611Z,0
2017-04-10T19:43:44.014Z,0
2017-04-10T19:44:24.503Z,0
2017-04-10T19:47:02.941Z,0
2017-04-10T19:47:44.122Z,0
2017-04-10T19:48:25.707Z,0
2017-04-10T19:49:06.186Z,0
2017-04-10T19:49:46.617Z,0
2017-04-10T19:50:27.023Z,0
2017-04-10T19:51:07.463Z,0
2017-04-10T19:51:47.950Z,0
2017-04-10T19:52:29.126Z,0
2017-04-10T19:53:09.795Z,0
2017-04-10T19:53:50.284Z,0
2017-04-10T19:54:30.775Z,0
2017-04-10T19:55:11.972Z,0
2017-04-10T19:55:52.751Z,0
2017-04-10T19:56:33.576Z,0
2017-04-10T19:57:14.059Z,0
2017-04-10T19:57:54.541Z,0
2017-04-10T19:58:34.990Z,0
2017-04-10T19:59:15.701Z,0
2017-04-10T19:59:58.961Z,0
2017-04-10T20:00:40.194Z,0
2017-04-10T20:01:20.865Z,0
2017-04-10T20:02:02.146Z,0
2017-04-10T20:02:42.972Z,0
2017-04-10T20:03:23.288Z,0
2017-04-10T20:04:04.466Z,0
2017-04-10T20:04:44.859Z,0
2017-04-10T20:05:25.299Z,0
2017-04-10T20:06:07.465Z,0
2017-04-10T20:06:47.848Z,0
2017-04-10T20:07:28.340Z,0
2017-04-10T20:08:08.966Z,0
2017-04-10T20:08:50.975Z,0
2017-04-10T20:09:32.156Z,0
2017-04-10T20:10:12.600Z,0
2017-04-10T20:10:53.114Z,0
2017-04-10T20:11:36.066Z,0
2017-04-10T20:12:17.265Z,0
2017-04-10T20:12:57.719Z,0
2017-04-10T20:13:38.855Z,0
2017-04-10T20:14:19.349Z,0
2017-04-10T20:14:59.830Z,0
2017-04-10T20:15:41.122Z,0
2017-04-10T20:16:22.571Z,0
2017-04-10T20:17:03.016Z,0
2017-04-10T20:17:44.161Z,0
2017-04-10T20:18:25.450Z,0
2017-04-10T20:19:05.928Z,0
2017-04-10T20:19:47.301Z,0
2017-04-10T20:20:27.726Z,0
2017-04-10T20:21:08.171Z,0
2017-04-10T20:21:48.583Z,0
2017-04-10T20:22:28.982Z,0
2017-04-10T20:23:09.559Z,0
2017-04-10T20:23:50.593Z,0
2017-04-10T20:24:31.163Z,0
2017-04-10T20:25:12.457Z,0
2017-04-10T20:25:53.029Z,0
2017-04-10T20:26:35.749Z,0
2017-04-10T20:27:16.286Z,0
2017-04-10T20:27:57.966Z,0
2017-04-10T20:28:39.416Z,0
2017-04-10T20:29:20.815Z,0
2017-04-10T20:30:01.274Z,0
2017-04-10T20:30:43.681Z,0
2017-04-10T20:33:13.849Z,0
2017-04-10T20:33:54.520Z,0
2017-04-10T20:34:34.954Z,0
2017-04-10T20:35:15.543Z,0
2017-04-10T20:35:56.349Z,0
2017-04-10T20:36:36.845Z,0
2017-04-10T20:37:17.633Z,0
2017-04-10T20:37:58.073Z,0
2017-04-10T20:38:38.457Z,0
2017-04-10T20:39:18.870Z,0
2017-04-10T20:40:01.980Z,0
2017-04-10T20:40:42.370Z,0
2017-04-10T20:41:22.799Z,0
2017-04-10T20:42:03.199Z,0
2017-04-10T20:42:43.665Z,0
2017-04-10T20:43:24.129Z,0
2017-04-10T20:44:04.647Z,0
2017-04-10T20:44:45.608Z,0
2017-04-10T20:45:26.170Z,0
2017-04-10T20:46:06.571Z,0
2017-04-10T20:48:26.728Z,0
2017-04-10T20:49:09.897Z,0
2017-04-10T20:49:51.951Z,0
2017-04-10T20:50:32.462Z,0
2017-04-10T20:51:12.923Z,0
2017-04-10T20:51:53.382Z,0
2017-04-10T20:52:33.983Z,0
2017-04-10T20:53:16.910Z,0
2017-04-10T20:53:57.307Z,0
2017-04-10T20:54:37.753Z,0
2017-04-10T20:55:19.059Z,0
2017-04-10T20:55:59.577Z,0
2017-04-10T20:56:40.043Z,0
2017-04-10T20:58:37.906Z,0
2017-04-10T20:59:18.297Z,0
2017-04-10T21:01:32.072Z,0
2017-04-10T21:02:15.003Z,0
2017-04-10T21:02:56.273Z,0
2017-04-10T21:03:36.713Z,0
2017-04-10T21:04:17.909Z,0
2017-04-10T21:04:58.429Z,0
2017-04-10T21:05:39.841Z,0
2017-04-10T21:06:20.247Z,0
2017-04-10T21:07:00.635Z,0
2017-04-10T21:07:42.512Z,0
2017-04-10T21:08:23.345Z,0
2017-04-10T21:09:05.561Z,0
2017-04-10T21:09:48.489Z,0
2017-04-10T21:10:29.754Z,0
2017-04-10T21:11:11.206Z,0
2017-04-10T21:11:51.588Z,0
2017-04-10T21:12:32.882Z,0
2017-04-10T21:14:32.099Z,0
2017-04-10T21:15:12.490Z,0
2017-04-10T21:15:52.912Z,0
2017-04-10T21:16:33.815Z,0
2017-04-10T21:17:14.258Z,0
2017-04-10T21:17:55.376Z,0
2017-04-10T21:20:08.190Z,0
2017-04-10T21:20:53.286Z,0
2017-04-10T21:21:33.703Z,0
2017-04-10T21:22:14.789Z,0
2017-04-10T21:22:55.897Z,0
2017-04-10T21:23:36.504Z,0
2017-04-10T21:24:19.673Z,0
2017-04-10T21:25:00.932Z,0
2017-04-10T21:27:15.729Z,0
2017-04-10T21:27:56.160Z,0
2017-04-10T21:28:37.291Z,0
2017-04-10T21:29:17.713Z,0
2017-04-10T21:29:59.982Z,0
2017-04-10T21:30:41.031Z,0
2017-04-10T21:31:21.465Z,0
2017-04-10T21:32:07.447Z,0
2017-04-10T21:32:47.869Z,0
2017-04-10T21:33:29.214Z,0
2017-04-10T21:34:10.135Z,0
2017-04-10T21:34:51.762Z,0
2017-04-10T21:35:35.658Z,0
2017-04-10T21:36:16.720Z,0
2017-04-10T21:37:00.814Z,0
2017-04-10T21:37:42.783Z,0
2017-04-10T21:38:28.012Z,0
2017-04-10T21:39:12.587Z,0
2017-04-10T21:39:57.908Z,0
2017-04-10T21:40:41.311Z,0
2017-04-10T21:41:24.325Z,0
2017-04-10T21:43:26.872Z,0
2017-04-10T21:44:09.930Z,0
2017-04-10T21:44:52.635Z,0
2017-04-10T21:45:34.278Z,0
2017-04-10T21:46:15.839Z,0
2017-04-10T21:46:56.899Z,0
2017-04-10T21:47:39.479Z,0
2017-04-10T21:48:20.819Z,0
2017-04-10T21:49:06.517Z,0
2017-04-10T21:49:47.901Z,0
2017-04-10T21:50:28.892Z,0
2017-04-10T21:51:09.922Z,0
2017-04-10T21:53:32.570Z,0
2017-04-10T21:54:14.940Z,0
2017-04-10T21:54:55.931Z,0
2017-04-10T21:55:38.022Z,0
2017-04-10T21:56:20.430Z,0
2017-04-10T21:57:03.255Z,0
2017-04-10T21:57:45.008Z,0
2017-04-10T21:58:26.436Z,0
2017-04-10T21:59:07.685Z,0
2017-04-10T21:59:59.738Z,0
2017-04-10T22:00:41.112Z,0
2017-04-10T22:01:21.507Z,0
2017-04-10T22:02:01.951Z,0
2017-04-10T22:05:58.112Z,0
2017-04-10T22:06:39.157Z,0
2017-04-10T22:07:19.567Z,0
2017-04-10T22:08:00.016Z,0
2017-04-10T22:08:41.017Z,0
2017-04-10T22:09:21.496Z,0
2017-04-10T22:10:02.667Z,0
2017-04-10T22:10:43.151Z,0
2017-04-10T22:13:16.861Z,0
2017-04-10T22:13:57.265Z,0
2017-04-10T22:14:38.400Z,0
2017-04-10T22:15:18.762Z,0
2017-04-10T22:15:59.745Z,0
2017-04-10T22:16:40.176Z,0
2017-04-10T22:17:21.432Z,0
2017-04-10T22:18:01.856Z,0
2017-04-10T22:18:42.255Z,0
2017-04-10T22:19:23.591Z,0
2017-04-10T22:20:04.016Z,0
2017-04-10T22:20:46.212Z,0
2017-04-10T22:21:26.603Z,0
2017-04-10T22:22:07.065Z,0
2017-04-10T22:22:48.125Z,0
2017-04-10T22:23:28.503Z,0
2017-04-10T22:25:28.230Z,0
2017-04-10T22:26:10.208Z,0
2017-04-10T22:26:51.486Z,0
2017-04-10T22:27:32.865Z,0
2017-04-10T22:28:14.112Z,0
2017-04-10T22:28:54.545Z,0
2017-04-10T22:29:35.000Z,0
2017-04-10T22:30:15.414Z,0
2017-04-10T22:30:56.711Z,0
2017-04-10T22:31:37.737Z,0
2017-04-10T22:32:18.621Z,0
2017-04-10T22:32:59.055Z,0
2017-04-10T22:33:39.429Z,0
2017-04-10T22:34:22.338Z,0
2017-04-10T22:35:04.112Z,0
2017-04-10T22:35:44.551Z,0
2017-04-10T22:36:27.916Z,0
2017-04-10T22:37:10.272Z,0
2017-04-10T22:37:52.272Z,0
2017-04-10T22:38:32.851Z,0
2017-04-10T22:39:13.279Z,0
2017-04-10T22:39:54.124Z,0
2017-04-10T22:40:36.588Z,0
2017-04-10T22:41:17.532Z,0
2017-04-10T22:42:01.290Z,0
2017-04-10T22:42:42.657Z,0
2017-04-10T22:43:23.879Z,0
2017-04-10T22:44:04.301Z,0
2017-04-10T22:44:44.722Z,0
2017-04-10T22:45:25.192Z,0
2017-04-10T22:46:05.612Z,0
2017-04-10T22:46:46.029Z,0
2017-04-10T22:47:26.459Z,0
2017-04-10T22:48:06.835Z,0
2017-04-10T22:48:47.334Z,0
2017-04-10T22:49:27.768Z,0
2017-04-10T22:50:08.201Z,0
2017-04-10T22:50:48.601Z,0
2017-04-10T22:51:29.066Z,0
2017-04-10T22:52:11.286Z,0
2017-04-10T22:52:51.688Z,0
2017-04-10T22:53:33.631Z,0
2017-04-10T22:54:14.061Z,0
2017-04-10T22:54:54.503Z,0
2017-04-10T22:55:34.902Z,0
2017-04-10T22:56:18.923Z,0
2017-04-10T22:56:59.891Z,0
2017-04-10T22:57:43.809Z,0
2017-04-10T22:58:25.788Z,0
2017-04-10T22:59:06.238Z,0
2017-04-10T22:59:46.614Z,0
2017-04-10T23:02:14.936Z,0
2017-04-10T23:02:55.384Z,0
2017-04-10T23:03:35.796Z,0
2017-04-10T23:04:16.886Z,0
2017-04-10T23:04:57.312Z,0
2017-04-10T23:07:27.566Z,0
2017-04-10T23:08:07.981Z,0
2017-04-10T23:08:49.233Z,0
2017-04-10T23:09:31.558Z,0
2017-04-10T23:11:29.439Z,0
2017-04-10T23:12:09.887Z,0
2017-04-10T23:12:50.862Z,0
2017-04-10T23:13:31.329Z,0
2017-04-10T23:14:12.344Z,0
2017-04-10T23:14:53.513Z,0
2017-04-10T23:15:34.915Z,0
2017-04-10T23:16:15.336Z,0
2017-04-10T23:16:56.418Z,0
2017-04-10T23:17:37.751Z,0
2017-04-10T23:18:18.186Z,0
2017-04-10T23:18:58.586Z,0
2017-04-10T23:19:39.038Z,0
2017-04-10T23:20:19.464Z,0
2017-04-10T23:20:59.872Z,0
2017-04-10T23:21:40.307Z,0
2017-04-10T23:22:20.712Z,0
2017-04-10T23:23:01.144Z,0
2017-04-10T23:25:13.958Z,0
2017-04-10T23:25:54.391Z,0
2017-04-10T23:26:34.805Z,0
2017-04-10T23:27:15.220Z,0
2017-04-10T23:27:55.636Z,0
2017-04-10T23:28:36.039Z,0
2017-04-10T23:29:16.442Z,0
2017-04-10T23:29:56.890Z,0
2017-04-10T23:30:37.279Z,0
2017-04-10T23:31:17.689Z,0
2017-04-10T23:31:58.097Z,0
2017-04-10T23:32:38.534Z,0
2017-04-10T23:33:18.960Z,0
2017-04-10T23:33:59.401Z,0
2017-04-10T23:34:39.816Z,0
2017-04-10T23:35:22.163Z,0
2017-04-10T23:36:02.592Z,0
2017-04-10T23:36:42.983Z,0
2017-04-10T23:37:23.427Z,0
2017-04-10T23:38:03.873Z,0
2017-04-10T23:38:44.285Z,0
2017-04-10T23:39:24.660Z,0
2017-04-10T23:40:05.049Z,0
2017-04-10T23:40:45.498Z,0
2017-04-10T23:43:13.730Z,0
2017-04-10T23:43:54.122Z,0
2017-04-10T23:44:34.562Z,0
2017-04-10T23:45:15.003Z,0
2017-04-10T23:45:55.402Z,0
2017-04-10T23:46:36.496Z,0
2017-04-10T23:48:54.447Z,0
2017-04-10T23:49:34.885Z,0
2017-04-10T23:50:16.831Z,0
2017-04-10T23:50:58.270Z,0
2017-04-10T23:51:38.730Z,0
2017-04-10T23:52:19.144Z,0
2017-04-10T23:52:59.553Z,0
2017-04-10T23:53:40.789Z,0
2017-04-10T23:55:54.302Z,0
2017-04-10T23:56:34.731Z,0
2017-04-10T23:57:15.161Z,0
2017-04-10T23:57:55.585Z,0
2017-04-10T23:58:36.719Z,0
2017-04-10T23:59:17.704Z,0
2017-04-10T23:59:58.097Z,0
